Alsace — PB4786 — position and weather

sailwx.info

Track history (hours):
 
Tides and Currents Weather Stations Pressure Air Temp Water Temp Dewpoint Dewpoint Depression Visibility Wind Speed Wind Dir Waves Ship Positions

Alsace

Last reported at 2015-Jul-29 17:34 UTC. Time now 2015-Jul-29 18:00 UTC.
Position N 49°15' E 008°25'.

Length 178 m; draft 1.8 m.

Type: Ship. MMSI: 244660556.

Date/timePositionNaut miles runAvg speedWind from/ knotsBaromVisibWave heightAir tempDewpointWater temp
2015-Jul-29 17:34N 49°15' E 008°25'4 3.7
2015-Jul-29 16:28N 49°19' E 008°27'110 4.4
2015-Jul-28 15:30N 50°54' E 007°01'14 4.5
2015-Jul-28 12:23N 51°07' E 006°53'3 3.8
2015-Jul-28 11:34N 51°09' E 006°50'4 3.6
2015-Jul-28 10:34N 51°11' E 006°44'3 2.8
2015-Jul-28 09:34N 51°13' E 006°46'4 3.9
2015-Jul-28 08:33N 51°16' E 006°42'17 4.0
2015-Jul-28 04:21N 51°33' E 006°41'18 4.6
2015-Jul-28 00:28N 51°46' E 006°20'18 5.8
2015-Jul-27 21:24N 51°51' E 005°53'2 0.4
2015-Jul-27 16:33N 51°52' E 005°50'0 0.0
2015-Jul-27 15:25N 51°52' E 005°50'0 0.0
2015-Jul-27 13:33N 51°52' E 005°50'0 0.0
2015-Jul-27 04:30N 51°52' E 005°50'0 0.0
2015-Jul-27 03:22N 51°52' E 005°50'0 0.0
2015-Jul-27 02:30N 51°52' E 005°50'0 0.0
2015-Jul-27 01:32N 51°52' E 005°50'0 0.0
2015-Jul-26 23:24N 51°52' E 005°50'0 0.0
2015-Jul-26 22:28N 51°52' E 005°50'0 0.0
2015-Jul-26 21:32N 51°52' E 005°50'0 0.0
2015-Jul-26 19:32N 51°52' E 005°50'0 0.0
2015-Jul-26 18:32N 51°52' E 005°50'1 0.2
2015-Jul-26 11:29N 51°52' E 005°49'17 5.4
2015-Jul-26 08:19N 51°48' E 005°22'11 6.0
2015-Jul-26 06:29N 51°49' E 005°04'7 7.3
2015-Jul-26 05:33N 51°49' E 004°53'8 7.7
2015-Jul-26 04:34N 51°44' E 004°43'9 8.9
2015-Jul-26 03:31N 51°42' E 004°28'5 5.0
2015-Jul-26 02:33N 51°40' E 004°21'7 7.3
2015-Jul-26 01:33N 51°35' E 004°12'8 8.1
2015-Jul-26 00:33N 51°27' E 004°14'6 5.6
2015-Jul-25 23:32N 51°22' E 004°18'1 1.3
2015-Jul-25 22:31N 51°21' E 004°16'3 3.0
2015-Jul-25 21:33N 51°18' E 004°16'0 0.1
2015-Jul-25 20:33N 51°18' E 004°16'1 1.0
2015-Jul-25 19:34N 51°17' E 004°15'0 0.0
2015-Jul-25 18:33N 51°17' E 004°15'1 0.8
2015-Jul-25 17:33N 51°18' E 004°16'0 0.0
2015-Jul-25 16:33N 51°18' E 004°16'1 0.6
2015-Jul-25 15:33N 51°17' E 004°16'0 0.0
2015-Jul-25 14:33N 51°17' E 004°16'0 0.0
2015-Jul-25 13:33N 51°17' E 004°16'0 0.1
2015-Jul-25 12:33N 51°17' E 004°16'3 3.2
2015-Jul-25 11:33N 51°20' E 004°16'0 0.0
2015-Jul-25 10:33N 51°20' E 004°17'0 0.0
2015-Jul-25 09:33N 51°20' E 004°17'0 0.1
2015-Jul-25 08:31N 51°20' E 004°16'4 4.5
2015-Jul-25 07:33N 51°17' E 004°20'3 2.9
2015-Jul-25 06:34N 51°19' E 004°19'0 0.0
2015-Jul-25 05:32N 51°19' E 004°19'0 0.2
2015-Jul-25 04:34N 51°19' E 004°19'0 0.0
2015-Jul-25 03:33N 51°19' E 004°19'0 0.0
2015-Jul-25 02:34N 51°19' E 004°19'0 0.0
2015-Jul-25 01:34N 51°19' E 004°19'0 0.0
2015-Jul-25 00:33N 51°19' E 004°19'0 0.0
2015-Jul-24 23:34N 51°19' E 004°19'0 0.0
2015-Jul-24 22:33N 51°19' E 004°19'0 0.0
2015-Jul-24 21:34N 51°19' E 004°19'5 4.3
2015-Jul-24 20:22N 51°24' E 004°14'4 5.2
2015-Jul-24 19:33N 51°28' E 004°14'8 7.5
2015-Jul-24 18:32N 51°35' E 004°12'8 7.4
2015-Jul-24 17:27N 51°40' E 004°22'3 3.4
2015-Jul-24 16:33N 51°42' E 004°26'8 7.5
2015-Jul-24 15:33N 51°44' E 004°38'5 4.8
2015-Jul-24 14:33N 51°49' E 004°39'0 0.0
2015-Jul-24 13:33N 51°49' E 004°39'0 0.0
2015-Jul-24 12:34N 51°49' E 004°39'0 0.0
2015-Jul-24 11:34N 51°49' E 004°39'4 3.9
2015-Jul-24 10:33N 51°49' E 004°46'7 6.5
2015-Jul-24 09:33N 51°50' E 004°56'9 9.1
2015-Jul-24 08:32N 51°49' E 005°11'8 8.3
2015-Jul-24 07:33N 51°50' E 005°24'10 8.9
2015-Jul-24 06:23N 51°54' E 005°40'6 7.7
2015-Jul-24 05:32N 51°52' E 005°50'0 0.0
2015-Jul-24 04:32N 51°52' E 005°50'0 0.0
2015-Jul-24 03:33N 51°52' E 005°50'0 0.0
2015-Jul-24 02:34N 51°52' E 005°50'0 0.0
2015-Jul-24 01:33N 51°52' E 005°50'0 0.4
2015-Jul-24 00:33N 51°51' E 005°50'47 6.5
2015-Jul-23 17:16N 51°18' E 006°43'4 5.6
2015-Jul-23 16:33N 51°14' E 006°44'5 5.3
2015-Jul-23 15:32N 51°10' E 006°50'15 7.5
2015-Jul-23 13:29N 50°55' E 006°58'110 6.8
2015-Jul-22 21:25N 49°23' E 008°30'6 6.4
2015-Jul-22 20:29N 49°17' E 008°28'8 8.5
2015-Jul-22 19:33N 49°10' E 008°22'9 9.0
2015-Jul-22 18:33N 49°01' E 008°18'21 7.0
2015-Jul-22 15:33N 48°45' E 007°58'5 3.7
2015-Jul-22 14:20N 48°41' E 007°54'63 2.9
2015-Jul-21 16:33N 47°40' E 007°31'4 4.2
2015-Jul-21 15:33N 47°36' E 007°35'0 0.1
2015-Jul-21 14:32N 47°36' E 007°35'0 0.0
2015-Jul-21 13:34N 47°36' E 007°35'0 0.0
2015-Jul-21 12:33N 47°36' E 007°35'1 1.4
2015-Jul-21 11:33N 47°35' E 007°35'0 0.3
2015-Jul-21 10:33N 47°35' E 007°35'0 0.0
2015-Jul-21 09:33N 47°35' E 007°35'0 0.2
2015-Jul-21 08:33N 47°35' E 007°35'0 0.0
2015-Jul-21 07:33N 47°35' E 007°35'0 0.0
2015-Jul-21 06:33N 47°35' E 007°35'0 0.0
2015-Jul-21 05:33N 47°35' E 007°35'0 0.1
2015-Jul-21 04:33N 47°35' E 007°35'0 0.0
2015-Jul-21 03:33N 47°35' E 007°35'0 0.0
2015-Jul-21 02:33N 47°35' E 007°35'0 0.0
2015-Jul-21 01:33N 47°35' E 007°35'0 0.0
2015-Jul-21 00:33N 47°35' E 007°35'0 0.0
2015-Jul-20 23:33N 47°35' E 007°35'0 0.0
2015-Jul-20 22:33N 47°35' E 007°35'0 0.0
2015-Jul-20 21:33N 47°35' E 007°35'0 0.0
2015-Jul-20 20:33N 47°35' E 007°35'2 1.8
2015-Jul-20 19:33N 47°37' E 007°34'  
Track history (hours):
 
Tides and Currents Weather Stations Pressure Air Temp Water Temp Dewpoint Dewpoint Depression Visibility Wind Speed Wind Dir Waves Ship Positions

Alsace

Last reported at 2015-Jul-29 17:34 UTC. Time now 2015-Jul-29 18:00 UTC.
Position N 49°15' E 008°25'.

Length 178 m; draft 1.8 m.

Type: Ship. MMSI: 244660556.

Date/timePositionNaut miles runAvg speedWind from/ knotsBaromVisibWave heightAir tempDewpointWater temp
2015-Jul-29 17:34N 49°15' E 008°25'4 3.7
2015-Jul-29 16:28N 49°19' E 008°27'110 4.4
2015-Jul-28 15:30N 50°54' E 007°01'14 4.5
2015-Jul-28 12:23N 51°07' E 006°53'3 3.8
2015-Jul-28 11:34N 51°09' E 006°50'4 3.6
2015-Jul-28 10:34N 51°11' E 006°44'3 2.8
2015-Jul-28 09:34N 51°13' E 006°46'4 3.9
2015-Jul-28 08:33N 51°16' E 006°42'17 4.0
2015-Jul-28 04:21N 51°33' E 006°41'18 4.6
2015-Jul-28 00:28N 51°46' E 006°20'18 5.8
2015-Jul-27 21:24N 51°51' E 005°53'2 0.4
2015-Jul-27 16:33N 51°52' E 005°50'0 0.0
2015-Jul-27 15:25N 51°52' E 005°50'0 0.0
2015-Jul-27 13:33N 51°52' E 005°50'0 0.0
2015-Jul-27 04:30N 51°52' E 005°50'0 0.0
2015-Jul-27 03:22N 51°52' E 005°50'0 0.0
2015-Jul-27 02:30N 51°52' E 005°50'0 0.0
2015-Jul-27 01:32N 51°52' E 005°50'0 0.0
2015-Jul-26 23:24N 51°52' E 005°50'0 0.0
2015-Jul-26 22:28N 51°52' E 005°50'0 0.0
2015-Jul-26 21:32N 51°52' E 005°50'0 0.0
2015-Jul-26 19:32N 51°52' E 005°50'0 0.0
2015-Jul-26 18:32N 51°52' E 005°50'1 0.2
2015-Jul-26 11:29N 51°52' E 005°49'17 5.4
2015-Jul-26 08:19N 51°48' E 005°22'11 6.0
2015-Jul-26 06:29N 51°49' E 005°04'7 7.3
2015-Jul-26 05:33N 51°49' E 004°53'8 7.7
2015-Jul-26 04:34N 51°44' E 004°43'9 8.9
2015-Jul-26 03:31N 51°42' E 004°28'5 5.0
2015-Jul-26 02:33N 51°40' E 004°21'7 7.3
2015-Jul-26 01:33N 51°35' E 004°12'8 8.1
2015-Jul-26 00:33N 51°27' E 004°14'6 5.6
2015-Jul-25 23:32N 51°22' E 004°18'1 1.3
2015-Jul-25 22:31N 51°21' E 004°16'3 3.0
2015-Jul-25 21:33N 51°18' E 004°16'0 0.1
2015-Jul-25 20:33N 51°18' E 004°16'1 1.0
2015-Jul-25 19:34N 51°17' E 004°15'0 0.0
2015-Jul-25 18:33N 51°17' E 004°15'1 0.8
2015-Jul-25 17:33N 51°18' E 004°16'0 0.0
2015-Jul-25 16:33N 51°18' E 004°16'1 0.6
2015-Jul-25 15:33N 51°17' E 004°16'0 0.0
2015-Jul-25 14:33N 51°17' E 004°16'0 0.0
2015-Jul-25 13:33N 51°17' E 004°16'0 0.1
2015-Jul-25 12:33N 51°17' E 004°16'3 3.2
2015-Jul-25 11:33N 51°20' E 004°16'0 0.0
2015-Jul-25 10:33N 51°20' E 004°17'0 0.0
2015-Jul-25 09:33N 51°20' E 004°17'0 0.1
2015-Jul-25 08:31N 51°20' E 004°16'4 4.5
2015-Jul-25 07:33N 51°17' E 004°20'3 2.9
2015-Jul-25 06:34N 51°19' E 004°19'0 0.0
2015-Jul-25 05:32N 51°19' E 004°19'0 0.2
2015-Jul-25 04:34N 51°19' E 004°19'0 0.0
2015-Jul-25 03:33N 51°19' E 004°19'0 0.0
2015-Jul-25 02:34N 51°19' E 004°19'0 0.0
2015-Jul-25 01:34N 51°19' E 004°19'0 0.0
2015-Jul-25 00:33N 51°19' E 004°19'0 0.0
2015-Jul-24 23:34N 51°19' E 004°19'0 0.0
2015-Jul-24 22:33N 51°19' E 004°19'0 0.0
2015-Jul-24 21:34N 51°19' E 004°19'5 4.3
2015-Jul-24 20:22N 51°24' E 004°14'4 5.2
2015-Jul-24 19:33N 51°28' E 004°14'8 7.5
2015-Jul-24 18:32N 51°35' E 004°12'8 7.4
2015-Jul-24 17:27N 51°40' E 004°22'3 3.4
2015-Jul-24 16:33N 51°42' E 004°26'8 7.5
2015-Jul-24 15:33N 51°44' E 004°38'5 4.8
2015-Jul-24 14:33N 51°49' E 004°39'0 0.0
2015-Jul-24 13:33N 51°49' E 004°39'0 0.0
2015-Jul-24 12:34N 51°49' E 004°39'0 0.0
2015-Jul-24 11:34N 51°49' E 004°39'4 3.9
2015-Jul-24 10:33N 51°49' E 004°46'7 6.5
2015-Jul-24 09:33N 51°50' E 004°56'9 9.1
2015-Jul-24 08:32N 51°49' E 005°11'8 8.3
2015-Jul-24 07:33N 51°50' E 005°24'10 8.9
2015-Jul-24 06:23N 51°54' E 005°40'6 7.7
2015-Jul-24 05:32N 51°52' E 005°50'0 0.0
2015-Jul-24 04:32N 51°52' E 005°50'0 0.0
2015-Jul-24 03:33N 51°52' E 005°50'0 0.0
2015-Jul-24 02:34N 51°52' E 005°50'0 0.0
2015-Jul-24 01:33N 51°52' E 005°50'0 0.4
2015-Jul-24 00:33N 51°51' E 005°50'47 6.5
2015-Jul-23 17:16N 51°18' E 006°43'4 5.6
2015-Jul-23 16:33N 51°14' E 006°44'5 5.3
2015-Jul-23 15:32N 51°10' E 006°50'15 7.5
2015-Jul-23 13:29N 50°55' E 006°58'110 6.8
2015-Jul-22 21:25N 49°23' E 008°30'6 6.4
2015-Jul-22 20:29N 49°17' E 008°28'8 8.5
2015-Jul-22 19:33N 49°10' E 008°22'9 9.0
2015-Jul-22 18:33N 49°01' E 008°18'21 7.0
2015-Jul-22 15:33N 48°45' E 007°58'5 3.7
2015-Jul-22 14:20N 48°41' E 007°54'63 2.9
2015-Jul-21 16:33N 47°40' E 007°31'4 4.2
2015-Jul-21 15:33N 47°36' E 007°35'0 0.1
2015-Jul-21 14:32N 47°36' E 007°35'0 0.0
2015-Jul-21 13:34N 47°36' E 007°35'0 0.0
2015-Jul-21 12:33N 47°36' E 007°35'1 1.4
2015-Jul-21 11:33N 47°35' E 007°35'0 0.3
2015-Jul-21 10:33N 47°35' E 007°35'0 0.0
2015-Jul-21 09:33N 47°35' E 007°35'0 0.2
2015-Jul-21 08:33N 47°35' E 007°35'0 0.0
2015-Jul-21 07:33N 47°35' E 007°35'0 0.0
2015-Jul-21 06:33N 47°35' E 007°35'0 0.0
2015-Jul-21 05:33N 47°35' E 007°35'0 0.1
2015-Jul-21 04:33N 47°35' E 007°35'0 0.0
2015-Jul-21 03:33N 47°35' E 007°35'0 0.0
2015-Jul-21 02:33N 47°35' E 007°35'0 0.0
2015-Jul-21 01:33N 47°35' E 007°35'0 0.0
2015-Jul-21 00:33N 47°35' E 007°35'0 0.0
2015-Jul-20 23:33N 47°35' E 007°35'0 0.0
2015-Jul-20 22:33N 47°35' E 007°35'0 0.0
2015-Jul-20 21:33N 47°35' E 007°35'0 0.0
2015-Jul-20 20:33N 47°35' E 007°35'2 1.8
2015-Jul-20 19:33N 47°37' E 007°34'  

Dump ship's entire track history